sensor_id;sensor_type;location;lat;lon;timestamp;temperature;humidity
29575;DHT22;16507;51.046;6.406;2022-07-10T00:01:51;11.90;99.90
29575;DHT22;16507;51.046;6.406;2022-07-10T00:04:17;11.90;99.90
29575;DHT22;16507;51.046;6.406;2022-07-10T00:06:44;11.90;99.90
29575;DHT22;16507;51.046;6.406;2022-07-10T00:09:12;11.90;99.90
29575;DHT22;16507;51.046;6.406;2022-07-10T00:11:40;11.90;99.90
29575;DHT22;16507;51.046;6.406;2022-07-10T00:14:06;11.90;99.90
29575;DHT22;16507;51.046;6.406;2022-07-10T00:16:32;11.90;99.90
29575;DHT22;16507;51.046;6.406;2022-07-10T00:18:57;11.90;99.90
29575;DHT22;16507;51.046;6.406;2022-07-10T00:21:23;11.90;99.90
29575;DHT22;16507;51.046;6.406;2022-07-10T00:23:49;11.90;99.90
29575;DHT22;16507;51.046;6.406;2022-07-10T00:26:14;11.90;99.90
29575;DHT22;16507;51.046;6.406;2022-07-10T00:28:40;11.80;99.90
29575;DHT22;16507;51.046;6.406;2022-07-10T00:31:06;11.90;99.90
29575;DHT22;16507;51.046;6.406;2022-07-10T00:33:31;11.90;99.90
29575;DHT22;16507;51.046;6.406;2022-07-10T00:35:58;12.00;99.90
29575;DHT22;16507;51.046;6.406;2022-07-10T00:38:24;12.00;99.90
29575;DHT22;16507;51.046;6.406;2022-07-10T00:40:49;12.10;99.90
29575;DHT22;16507;51.046;6.406;2022-07-10T00:43:15;12.20;99.90
29575;DHT22;16507;51.046;6.406;2022-07-10T00:45:41;12.30;99.90
29575;DHT22;16507;51.046;6.406;2022-07-10T00:48:08;12.40;99.90
29575;DHT22;16507;51.046;6.406;2022-07-10T00:50:36;12.40;99.90
29575;DHT22;16507;51.046;6.406;2022-07-10T00:53:03;12.50;99.90
29575;DHT22;16507;51.046;6.406;2022-07-10T00:55:30;12.50;99.90
29575;DHT22;16507;51.046;6.406;2022-07-10T00:57:58;12.50;99.90
29575;DHT22;16507;51.046;6.406;2022-07-10T01:00:24;12.50;99.90
29575;DHT22;16507;51.046;6.406;2022-07-10T01:02:50;12.50;99.90
29575;DHT22;16507;51.046;6.406;2022-07-10T01:05:17;12.60;99.90
29575;DHT22;16507;51.046;6.406;2022-07-10T01:07:43;12.60;99.90
29575;DHT22;16507;51.046;6.406;2022-07-10T01:10:09;12.60;99.90
29575;DHT22;16507;51.046;6.406;2022-07-10T01:12:35;12.70;99.90
29575;DHT22;16507;51.046;6.406;2022-07-10T01:15:02;12.70;99.90
29575;DHT22;16507;51.046;6.406;2022-07-10T01:17:28;12.70;99.90
29575;DHT22;16507;51.046;6.406;2022-07-10T01:19:55;12.80;99.90
29575;DHT22;16507;51.046;6.406;2022-07-10T01:22:20;12.80;99.90
29575;DHT22;16507;51.046;6.406;2022-07-10T01:24:46;12.80;99.90
29575;DHT22;16507;51.046;6.406;2022-07-10T01:27:12;12.80;99.90
29575;DHT22;16507;51.046;6.406;2022-07-10T01:29:39;12.80;99.90
29575;DHT22;16507;51.046;6.406;2022-07-10T01:32:05;12.80;99.90
29575;DHT22;16507;51.046;6.406;2022-07-10T01:34:30;12.80;99.90
29575;DHT22;16507;51.046;6.406;2022-07-10T01:36:56;12.80;99.90
29575;DHT22;16507;51.046;6.406;2022-07-10T01:39:22;12.80;99.90
29575;DHT22;16507;51.046;6.406;2022-07-10T01:41:47;12.80;99.90
29575;DHT22;16507;51.046;6.406;2022-07-10T01:44:13;12.80;99.90
29575;DHT22;16507;51.046;6.406;2022-07-10T01:46:48;12.80;99.90
29575;DHT22;16507;51.046;6.406;2022-07-10T01:49:16;12.80;99.90
29575;DHT22;16507;51.046;6.406;2022-07-10T01:51:42;12.80;99.90
29575;DHT22;16507;51.046;6.406;2022-07-10T01:54:08;12.80;99.90
29575;DHT22;16507;51.046;6.406;2022-07-10T01:56:34;12.80;99.90
29575;DHT22;16507;51.046;6.406;2022-07-10T01:59:00;12.80;99.90
29575;DHT22;16507;51.046;6.406;2022-07-10T02:01:28;12.80;99.90
29575;DHT22;16507;51.046;6.406;2022-07-10T02:03:54;12.80;99.90
29575;DHT22;16507;51.046;6.406;2022-07-10T02:06:38;12.80;99.90
29575;DHT22;16507;51.046;6.406;2022-07-10T02:09:03;12.80;99.90
29575;DHT22;16507;51.046;6.406;2022-07-10T02:11:29;12.80;99.90
29575;DHT22;16507;51.046;6.406;2022-07-10T02:13:54;12.80;99.90
29575;DHT22;16507;51.046;6.406;2022-07-10T02:16:20;12.80;99.90
29575;DHT22;16507;51.046;6.406;2022-07-10T02:18:46;12.80;99.90
29575;DHT22;16507;51.046;6.406;2022-07-10T02:21:11;12.80;99.90
29575;DHT22;16507;51.046;6.406;2022-07-10T02:23:37;12.80;99.90
29575;DHT22;16507;51.046;6.406;2022-07-10T02:26:06;12.80;99.90
29575;DHT22;16507;51.046;6.406;2022-07-10T02:28:31;12.90;99.90
29575;DHT22;16507;51.046;6.406;2022-07-10T02:30:57;12.80;99.90
29575;DHT22;16507;51.046;6.406;2022-07-10T02:33:23;12.80;99.90
29575;DHT22;16507;51.046;6.406;2022-07-10T02:35:49;12.80;99.90
29575;DHT22;16507;51.046;6.406;2022-07-10T02:38:16;12.70;99.90
29575;DHT22;16507;51.046;6.406;2022-07-10T02:40:42;12.70;99.90
29575;DHT22;16507;51.046;6.406;2022-07-10T02:43:08;12.60;99.90
29575;DHT22;16507;51.046;6.406;2022-07-10T02:45:33;12.50;99.90
29575;DHT22;16507;51.046;6.406;2022-07-10T02:47:59;12.50;99.90
29575;DHT22;16507;51.046;6.406;2022-07-10T02:50:25;12.50;99.90
29575;DHT22;16507;51.046;6.406;2022-07-10T02:52:50;12.40;99.90
29575;DHT22;16507;51.046;6.406;2022-07-10T02:55:16;12.40;99.90
29575;DHT22;16507;51.046;6.406;2022-07-10T02:57:41;12.30;99.90
29575;DHT22;16507;51.046;6.406;2022-07-10T03:00:08;12.30;99.90
29575;DHT22;16507;51.046;6.406;2022-07-10T03:02:33;12.30;99.90
29575;DHT22;16507;51.046;6.406;2022-07-10T03:04:59;12.30;99.90
29575;DHT22;16507;51.046;6.406;2022-07-10T03:07:25;12.30;99.90
29575;DHT22;16507;51.046;6.406;2022-07-10T03:09:50;12.40;99.90
29575;DHT22;16507;51.046;6.406;2022-07-10T03:12:16;12.40;99.90
29575;DHT22;16507;51.046;6.406;2022-07-10T03:14:48;12.40;99.90
29575;DHT22;16507;51.046;6.406;2022-07-10T03:17:13;12.30;99.90
29575;DHT22;16507;51.046;6.406;2022-07-10T03:19:39;12.30;99.90
29575;DHT22;16507;51.046;6.406;2022-07-10T03:22:04;12.30;99.90
29575;DHT22;16507;51.046;6.406;2022-07-10T03:24:30;12.20;99.90
29575;DHT22;16507;51.046;6.406;2022-07-10T03:26:56;12.20;99.90
29575;DHT22;16507;51.046;6.406;2022-07-10T03:29:21;12.20;99.90
29575;DHT22;16507;51.046;6.406;2022-07-10T03:31:47;12.30;99.90
29575;DHT22;16507;51.046;6.406;2022-07-10T03:34:12;12.30;99.90
29575;DHT22;16507;51.046;6.406;2022-07-10T03:36:38;12.30;99.90
29575;DHT22;16507;51.046;6.406;2022-07-10T03:39:04;12.30;99.90
29575;DHT22;16507;51.046;6.406;2022-07-10T03:41:30;12.40;99.90
29575;DHT22;16507;51.046;6.406;2022-07-10T03:43:56;12.40;99.90
29575;DHT22;16507;51.046;6.406;2022-07-10T03:46:21;12.50;99.90
29575;DHT22;16507;51.046;6.406;2022-07-10T03:48:47;12.50;99.90
29575;DHT22;16507;51.046;6.406;2022-07-10T03:51:12;12.60;99.90
29575;DHT22;16507;51.046;6.406;2022-07-10T03:53:38;12.60;99.90
29575;DHT22;16507;51.046;6.406;2022-07-10T03:56:04;12.60;99.90
29575;DHT22;16507;51.046;6.406;2022-07-10T03:58:30;12.70;99.90
29575;DHT22;16507;51.046;6.406;2022-07-10T04:00:55;12.80;99.90
29575;DHT22;16507;51.046;6.406;2022-07-10T04:03:21;12.80;99.90
29575;DHT22;16507;51.046;6.406;2022-07-10T04:05:47;12.90;99.90
29575;DHT22;16507;51.046;6.406;2022-07-10T04:08:12;12.90;99.90
29575;DHT22;16507;51.046;6.406;2022-07-10T04:10:38;12.90;99.90
29575;DHT22;16507;51.046;6.406;2022-07-10T04:13:04;12.90;99.90
29575;DHT22;16507;51.046;6.406;2022-07-10T04:15:29;13.00;99.90
29575;DHT22;16507;51.046;6.406;2022-07-10T04:17:55;13.00;99.90
29575;DHT22;16507;51.046;6.406;2022-07-10T04:20:21;13.00;99.90
29575;DHT22;16507;51.046;6.406;2022-07-10T04:22:50;13.00;99.90
29575;DHT22;16507;51.046;6.406;2022-07-10T04:25:16;13.00;99.90
29575;DHT22;16507;51.046;6.406;2022-07-10T04:27:42;13.00;99.90
29575;DHT22;16507;51.046;6.406;2022-07-10T04:30:08;13.00;99.90
29575;DHT22;16507;51.046;6.406;2022-07-10T04:32:34;13.00;99.90
29575;DHT22;16507;51.046;6.406;2022-07-10T04:34:59;13.00;99.90
29575;DHT22;16507;51.046;6.406;2022-07-10T04:37:26;13.00;99.90
29575;DHT22;16507;51.046;6.406;2022-07-10T04:39:52;13.00;99.90
29575;DHT22;16507;51.046;6.406;2022-07-10T04:42:17;13.00;99.90
29575;DHT22;16507;51.046;6.406;2022-07-10T04:44:43;13.10;99.90
29575;DHT22;16507;51.046;6.406;2022-07-10T04:47:08;13.10;99.90
29575;DHT22;16507;51.046;6.406;2022-07-10T04:49:35;13.20;99.90
29575;DHT22;16507;51.046;6.406;2022-07-10T04:52:00;13.20;99.90
29575;DHT22;16507;51.046;6.406;2022-07-10T04:54:26;13.20;99.90
29575;DHT22;16507;51.046;6.406;2022-07-10T04:56:52;13.40;99.90
29575;DHT22;16507;51.046;6.406;2022-07-10T04:59:18;13.40;99.90
29575;DHT22;16507;51.046;6.406;2022-07-10T05:01:43;13.40;99.90
29575;DHT22;16507;51.046;6.406;2022-07-10T05:04:09;13.40;99.90
29575;DHT22;16507;51.046;6.406;2022-07-10T05:06:35;13.40;99.90
29575;DHT22;16507;51.046;6.406;2022-07-10T05:09:02;13.40;99.90
29575;DHT22;16507;51.046;6.406;2022-07-10T05:11:27;13.50;99.90
29575;DHT22;16507;51.046;6.406;2022-07-10T05:13:53;13.50;99.90
29575;DHT22;16507;51.046;6.406;2022-07-10T05:16:19;13.50;99.90
29575;DHT22;16507;51.046;6.406;2022-07-10T05:18:45;13.60;99.90
29575;DHT22;16507;51.046;6.406;2022-07-10T05:21:11;13.60;99.90
29575;DHT22;16507;51.046;6.406;2022-07-10T05:23:40;13.70;99.90
29575;DHT22;16507;51.046;6.406;2022-07-10T05:26:06;13.70;99.90
29575;DHT22;16507;51.046;6.406;2022-07-10T05:28:32;13.70;99.90
29575;DHT22;16507;51.046;6.406;2022-07-10T05:30:57;13.70;99.90
29575;DHT22;16507;51.046;6.406;2022-07-10T05:33:23;13.70;99.90
29575;DHT22;16507;51.046;6.406;2022-07-10T05:35:49;13.70;99.90
29575;DHT22;16507;51.046;6.406;2022-07-10T05:38:15;13.90;99.90
29575;DHT22;16507;51.046;6.406;2022-07-10T05:40:43;14.00;99.90
29575;DHT22;16507;51.046;6.406;2022-07-10T05:43:08;14.00;99.90
29575;DHT22;16507;51.046;6.406;2022-07-10T05:45:35;14.10;99.90
29575;DHT22;16507;51.046;6.406;2022-07-10T05:48:01;14.10;99.90
29575;DHT22;16507;51.046;6.406;2022-07-10T05:50:26;14.20;99.90
29575;DHT22;16507;51.046;6.406;2022-07-10T05:52:52;14.30;99.90
29575;DHT22;16507;51.046;6.406;2022-07-10T05:55:17;14.20;99.90
29575;DHT22;16507;51.046;6.406;2022-07-10T05:57:43;14.30;99.90
29575;DHT22;16507;51.046;6.406;2022-07-10T06:00:09;14.30;99.90
29575;DHT22;16507;51.046;6.406;2022-07-10T06:02:35;14.40;99.90
29575;DHT22;16507;51.046;6.406;2022-07-10T06:05:00;14.50;99.90
29575;DHT22;16507;51.046;6.406;2022-07-10T06:07:27;14.60;99.90
29575;DHT22;16507;51.046;6.406;2022-07-10T06:09:53;14.60;99.90
29575;DHT22;16507;51.046;6.406;2022-07-10T06:12:22;14.60;99.90
29575;DHT22;16507;51.046;6.406;2022-07-10T06:14:47;14.70;99.90
29575;DHT22;16507;51.046;6.406;2022-07-10T06:17:13;14.70;99.90
29575;DHT22;16507;51.046;6.406;2022-07-10T06:19:39;14.90;99.90
29575;DHT22;16507;51.046;6.406;2022-07-10T06:22:04;15.00;99.90
29575;DHT22;16507;51.046;6.406;2022-07-10T06:24:49;15.10;99.90
29575;DHT22;16507;51.046;6.406;2022-07-10T06:27:14;15.20;99.90
29575;DHT22;16507;51.046;6.406;2022-07-10T06:29:40;15.20;99.90
29575;DHT22;16507;51.046;6.406;2022-07-10T06:32:06;15.20;99.90
29575;DHT22;16507;51.046;6.406;2022-07-10T06:34:32;15.20;99.90
29575;DHT22;16507;51.046;6.406;2022-07-10T06:36:57;15.20;99.90
29575;DHT22;16507;51.046;6.406;2022-07-10T06:39:23;15.30;99.90
29575;DHT22;16507;51.046;6.406;2022-07-10T06:41:49;15.40;99.90
29575;DHT22;16507;51.046;6.406;2022-07-10T06:44:14;15.30;99.90
29575;DHT22;16507;51.046;6.406;2022-07-10T06:46:40;15.30;99.90
29575;DHT22;16507;51.046;6.406;2022-07-10T06:49:06;15.40;99.90
29575;DHT22;16507;51.046;6.406;2022-07-10T06:51:32;15.50;99.90
29575;DHT22;16507;51.046;6.406;2022-07-10T06:53:58;15.50;99.90
29575;DHT22;16507;51.046;6.406;2022-07-10T06:56:23;15.50;99.90
29575;DHT22;16507;51.046;6.406;2022-07-10T06:58:52;15.40;99.90
29575;DHT22;16507;51.046;6.406;2022-07-10T07:01:18;15.40;99.90
29575;DHT22;16507;51.046;6.406;2022-07-10T07:03:43;15.40;99.90
29575;DHT22;16507;51.046;6.406;2022-07-10T07:06:09;15.30;99.90
29575;DHT22;16507;51.046;6.406;2022-07-10T07:08:35;15.30;99.90
29575;DHT22;16507;51.046;6.406;2022-07-10T07:11:02;15.30;99.90
29575;DHT22;16507;51.046;6.406;2022-07-10T07:13:28;15.30;99.90
29575;DHT22;16507;51.046;6.406;2022-07-10T07:15:53;15.30;99.90
29575;DHT22;16507;51.046;6.406;2022-07-10T07:18:25;15.40;99.90
29575;DHT22;16507;51.046;6.406;2022-07-10T07:21:02;15.40;99.90
29575;DHT22;16507;51.046;6.406;2022-07-10T07:23:47;15.50;99.90
29575;DHT22;16507;51.046;6.406;2022-07-10T07:26:13;15.60;99.90
29575;DHT22;16507;51.046;6.406;2022-07-10T07:28:38;15.60;99.90
29575;DHT22;16507;51.046;6.406;2022-07-10T07:31:04;15.60;99.90
29575;DHT22;16507;51.046;6.406;2022-07-10T07:33:30;15.60;99.90
29575;DHT22;16507;51.046;6.406;2022-07-10T07:35:55;15.50;99.90
29575;DHT22;16507;51.046;6.406;2022-07-10T07:38:21;15.70;99.90
29575;DHT22;16507;51.046;6.406;2022-07-10T07:40:47;15.70;99.90
29575;DHT22;16507;51.046;6.406;2022-07-10T07:43:13;15.60;99.90
29575;DHT22;16507;51.046;6.406;2022-07-10T07:45:38;15.70;99.90
29575;DHT22;16507;51.046;6.406;2022-07-10T07:48:04;15.80;99.90
29575;DHT22;16507;51.046;6.406;2022-07-10T07:50:32;16.00;99.90
29575;DHT22;16507;51.046;6.406;2022-07-10T07:52:59;15.90;99.90
29575;DHT22;16507;51.046;6.406;2022-07-10T07:55:25;16.10;99.90
29575;DHT22;16507;51.046;6.406;2022-07-10T07:57:52;16.10;99.90
29575;DHT22;16507;51.046;6.406;2022-07-10T08:00:19;16.20;99.90
29575;DHT22;16507;51.046;6.406;2022-07-10T08:02:48;16.30;99.90
29575;DHT22;16507;51.046;6.406;2022-07-10T08:05:14;16.30;99.90
29575;DHT22;16507;51.046;6.406;2022-07-10T08:07:45;16.50;99.90
29575;DHT22;16507;51.046;6.406;2022-07-10T08:10:13;16.60;99.90
29575;DHT22;16507;51.046;6.406;2022-07-10T08:12:40;16.90;99.90
29575;DHT22;16507;51.046;6.406;2022-07-10T08:15:10;17.00;99.90
29575;DHT22;16507;51.046;6.406;2022-07-10T08:17:37;17.20;99.90
29575;DHT22;16507;51.046;6.406;2022-07-10T08:20:04;17.30;99.90
29575;DHT22;16507;51.046;6.406;2022-07-10T08:22:31;17.40;99.90
29575;DHT22;16507;51.046;6.406;2022-07-10T08:24:57;17.20;99.90
29575;DHT22;16507;51.046;6.406;2022-07-10T08:27:23;17.00;99.90
29575;DHT22;16507;51.046;6.406;2022-07-10T08:29:51;17.10;99.90
29575;DHT22;16507;51.046;6.406;2022-07-10T08:32:17;17.00;99.90
29575;DHT22;16507;51.046;6.406;2022-07-10T08:34:43;17.10;99.90
29575;DHT22;16507;51.046;6.406;2022-07-10T08:37:08;17.30;99.90
29575;DHT22;16507;51.046;6.406;2022-07-10T08:39:34;17.30;99.90
29575;DHT22;16507;51.046;6.406;2022-07-10T08:42:00;17.40;99.90
29575;DHT22;16507;51.046;6.406;2022-07-10T08:44:27;17.60;99.90
29575;DHT22;16507;51.046;6.406;2022-07-10T08:46:54;17.70;99.90
29575;DHT22;16507;51.046;6.406;2022-07-10T08:49:20;18.10;99.90
29575;DHT22;16507;51.046;6.406;2022-07-10T08:54:14;17.70;99.90
29575;DHT22;16507;51.046;6.406;2022-07-10T08:56:41;17.40;99.90
29575;DHT22;16507;51.046;6.406;2022-07-10T08:59:07;17.10;99.90
29575;DHT22;16507;51.046;6.406;2022-07-10T09:01:33;16.90;99.90
29575;DHT22;16507;51.046;6.406;2022-07-10T09:03:59;16.70;99.90
29575;DHT22;16507;51.046;6.406;2022-07-10T09:06:27;16.60;99.90
29575;DHT22;16507;51.046;6.406;2022-07-10T09:09:01;16.70;99.90
29575;DHT22;16507;51.046;6.406;2022-07-10T09:11:27;16.50;99.90
29575;DHT22;16507;51.046;6.406;2022-07-10T09:14:01;16.40;99.90
29575;DHT22;16507;51.046;6.406;2022-07-10T09:16:34;16.20;99.90
29575;DHT22;16507;51.046;6.406;2022-07-10T09:19:23;16.20;99.90
29575;DHT22;16507;51.046;6.406;2022-07-10T09:22:08;16.00;99.90
29575;DHT22;16507;51.046;6.406;2022-07-10T09:24:46;16.10;99.90
29575;DHT22;16507;51.046;6.406;2022-07-10T09:27:14;16.10;99.90
29575;DHT22;16507;51.046;6.406;2022-07-10T09:29:51;16.20;99.90
29575;DHT22;16507;51.046;6.406;2022-07-10T09:32:25;16.30;99.90
29575;DHT22;16507;51.046;6.406;2022-07-10T09:34:52;16.40;99.90
29575;DHT22;16507;51.046;6.406;2022-07-10T09:37:41;16.50;99.90
29575;DHT22;16507;51.046;6.406;2022-07-10T09:40:08;16.50;99.90
29575;DHT22;16507;51.046;6.406;2022-07-10T09:42:38;16.50;99.90
29575;DHT22;16507;51.046;6.406;2022-07-10T09:47:36;16.60;99.90
29575;DHT22;16507;51.046;6.406;2022-07-10T09:50:02;16.70;99.90
29575;DHT22;16507;51.046;6.406;2022-07-10T09:52:29;16.60;99.90
29575;DHT22;16507;51.046;6.406;2022-07-10T09:54:56;16.90;99.90
29575;DHT22;16507;51.046;6.406;2022-07-10T09:57:25;16.90;99.90
29575;DHT22;16507;51.046;6.406;2022-07-10T09:59:53;16.90;99.90
29575;DHT22;16507;51.046;6.406;2022-07-10T10:02:21;16.70;99.90
29575;DHT22;16507;51.046;6.406;2022-07-10T10:04:48;16.60;99.90
29575;DHT22;16507;51.046;6.406;2022-07-10T10:07:18;16.80;99.90
29575;DHT22;16507;51.046;6.406;2022-07-10T10:09:52;17.10;99.90
29575;DHT22;16507;51.046;6.406;2022-07-10T10:12:47;17.20;99.90
29575;DHT22;16507;51.046;6.406;2022-07-10T10:15:14;17.30;99.90
29575;DHT22;16507;51.046;6.406;2022-07-10T10:17:41;17.50;99.90
29575;DHT22;16507;51.046;6.406;2022-07-10T10:20:08;17.80;99.90
29575;DHT22;16507;51.046;6.406;2022-07-10T10:22:53;18.30;99.90
29575;DHT22;16507;51.046;6.406;2022-07-10T10:25:22;19.00;99.90
29575;DHT22;16507;51.046;6.406;2022-07-10T10:27:50;18.90;99.90
29575;DHT22;16507;51.046;6.406;2022-07-10T10:30:16;18.90;99.90
29575;DHT22;16507;51.046;6.406;2022-07-10T10:32:43;18.80;99.90
29575;DHT22;16507;51.046;6.406;2022-07-10T10:35:08;18.70;99.90
29575;DHT22;16507;51.046;6.406;2022-07-10T10:37:40;18.90;99.90
29575;DHT22;16507;51.046;6.406;2022-07-10T10:40:10;19.30;99.90
29575;DHT22;16507;51.046;6.406;2022-07-10T10:42:38;19.10;99.90
29575;DHT22;16507;51.046;6.406;2022-07-10T10:48:02;18.60;99.90
29575;DHT22;16507;51.046;6.406;2022-07-10T10:53:03;18.00;99.90
29575;DHT22;16507;51.046;6.406;2022-07-10T10:55:28;17.90;99.90
29575;DHT22;16507;51.046;6.406;2022-07-10T10:58:13;17.90;99.90
29575;DHT22;16507;51.046;6.406;2022-07-10T11:00:39;18.10;99.90
29575;DHT22;16507;51.046;6.406;2022-07-10T11:03:19;17.90;99.90
29575;DHT22;16507;51.046;6.406;2022-07-10T11:05:46;18.10;99.90
29575;DHT22;16507;51.046;6.406;2022-07-10T11:08:12;18.40;99.90
29575;DHT22;16507;51.046;6.406;2022-07-10T11:10:45;18.60;99.90
29575;DHT22;16507;51.046;6.406;2022-07-10T11:13:12;19.30;99.90
29575;DHT22;16507;51.046;6.406;2022-07-10T11:15:43;19.60;99.90
29575;DHT22;16507;51.046;6.406;2022-07-10T11:18:12;19.30;99.90
29575;DHT22;16507;51.046;6.406;2022-07-10T11:25:54;19.20;99.90
29575;DHT22;16507;51.046;6.406;2022-07-10T11:28:52;19.00;99.90
29575;DHT22;16507;51.046;6.406;2022-07-10T11:31:20;18.80;99.90
29575;DHT22;16507;51.046;6.406;2022-07-10T11:33:47;18.70;99.90
29575;DHT22;16507;51.046;6.406;2022-07-10T11:36:24;19.20;99.90
29575;DHT22;16507;51.046;6.406;2022-07-10T11:39:06;19.50;99.90
29575;DHT22;16507;51.046;6.406;2022-07-10T11:41:32;19.90;99.90
29575;DHT22;16507;51.046;6.406;2022-07-10T11:43:59;20.10;99.90
29575;DHT22;16507;51.046;6.406;2022-07-10T11:46:31;20.80;99.90
29575;DHT22;16507;51.046;6.406;2022-07-10T11:48:58;21.10;99.90
29575;DHT22;16507;51.046;6.406;2022-07-10T11:51:34;20.90;99.90
29575;DHT22;16507;51.046;6.406;2022-07-10T11:54:12;20.50;99.90
29575;DHT22;16507;51.046;6.406;2022-07-10T11:56:51;20.40;99.90
29575;DHT22;16507;51.046;6.406;2022-07-10T11:59:25;20.50;99.90
29575;DHT22;16507;51.046;6.406;2022-07-10T12:01:52;20.70;99.90
29575;DHT22;16507;51.046;6.406;2022-07-10T12:04:20;20.60;99.90
29575;DHT22;16507;51.046;6.406;2022-07-10T12:06:55;20.60;99.90
29575;DHT22;16507;51.046;6.406;2022-07-10T12:09:22;20.10;99.90
29575;DHT22;16507;51.046;6.406;2022-07-10T12:12:05;20.10;99.90
29575;DHT22;16507;51.046;6.406;2022-07-10T12:14:32;19.90;99.90
29575;DHT22;16507;51.046;6.406;2022-07-10T12:16:58;19.80;99.90
29575;DHT22;16507;51.046;6.406;2022-07-10T12:19:36;19.80;99.90
29575;DHT22;16507;51.046;6.406;2022-07-10T12:22:04;19.70;99.90
29575;DHT22;16507;51.046;6.406;2022-07-10T12:24:30;19.50;99.90
29575;DHT22;16507;51.046;6.406;2022-07-10T12:26:56;19.20;99.90
29575;DHT22;16507;51.046;6.406;2022-07-10T12:29:29;18.70;99.90
29575;DHT22;16507;51.046;6.406;2022-07-10T12:31:57;18.40;99.90
29575;DHT22;16507;51.046;6.406;2022-07-10T12:34:37;18.30;99.90
29575;DHT22;16507;51.046;6.406;2022-07-10T12:39:36;18.30;99.90
29575;DHT22;16507;51.046;6.406;2022-07-10T12:42:05;18.30;99.90
29575;DHT22;16507;51.046;6.406;2022-07-10T12:44:45;18.50;99.90
29575;DHT22;16507;51.046;6.406;2022-07-10T12:47:20;18.90;99.90
29575;DHT22;16507;51.046;6.406;2022-07-10T12:50:06;19.80;99.90
29575;DHT22;16507;51.046;6.406;2022-07-10T12:52:36;20.70;99.90
29575;DHT22;16507;51.046;6.406;2022-07-10T13:00:30;21.20;99.90
29575;DHT22;16507;51.046;6.406;2022-07-10T13:03:09;21.30;99.90
29575;DHT22;16507;51.046;6.406;2022-07-10T13:05:41;21.20;99.90
29575;DHT22;16507;51.046;6.406;2022-07-10T13:08:07;21.60;99.90
29575;DHT22;16507;51.046;6.406;2022-07-10T13:10:35;21.90;99.90
29575;DHT22;16507;51.046;6.406;2022-07-10T13:13:04;21.60;99.90
29575;DHT22;16507;51.046;6.406;2022-07-10T13:15:30;21.10;99.90
29575;DHT22;16507;51.046;6.406;2022-07-10T13:17:57;21.00;99.90
29575;DHT22;16507;51.046;6.406;2022-07-10T13:20:23;20.40;99.90
29575;DHT22;16507;51.046;6.406;2022-07-10T13:22:49;19.90;99.90
29575;DHT22;16507;51.046;6.406;2022-07-10T13:25:15;19.80;99.90
29575;DHT22;16507;51.046;6.406;2022-07-10T13:27:40;19.50;99.90
29575;DHT22;16507;51.046;6.406;2022-07-10T13:30:08;19.40;99.90
29575;DHT22;16507;51.046;6.406;2022-07-10T13:32:33;19.50;99.90
29575;DHT22;16507;51.046;6.406;2022-07-10T13:34:59;19.60;99.90
29575;DHT22;16507;51.046;6.406;2022-07-10T13:37:25;20.10;99.90
29575;DHT22;16507;51.046;6.406;2022-07-10T13:39:51;20.70;99.90
29575;DHT22;16507;51.046;6.406;2022-07-10T13:42:17;21.00;99.90
29575;DHT22;16507;51.046;6.406;2022-07-10T13:44:42;21.00;99.90
29575;DHT22;16507;51.046;6.406;2022-07-10T13:47:08;21.00;99.90
29575;DHT22;16507;51.046;6.406;2022-07-10T13:49:34;21.00;99.90
29575;DHT22;16507;51.046;6.406;2022-07-10T13:52:00;21.00;99.90
29575;DHT22;16507;51.046;6.406;2022-07-10T13:54:25;21.00;99.90
29575;DHT22;16507;51.046;6.406;2022-07-10T13:56:51;21.20;99.90
29575;DHT22;16507;51.046;6.406;2022-07-10T13:59:17;21.20;99.90
29575;DHT22;16507;51.046;6.406;2022-07-10T14:01:42;21.00;99.90
29575;DHT22;16507;51.046;6.406;2022-07-10T14:04:08;20.60;99.90
29575;DHT22;16507;51.046;6.406;2022-07-10T14:06:36;20.60;99.90
29575;DHT22;16507;51.046;6.406;2022-07-10T14:09:02;20.80;99.90
29575;DHT22;16507;51.046;6.406;2022-07-10T14:11:27;20.90;99.90
29575;DHT22;16507;51.046;6.406;2022-07-10T14:13:54;21.10;99.90
29575;DHT22;16507;51.046;6.406;2022-07-10T14:16:20;21.50;99.90
29575;DHT22;16507;51.046;6.406;2022-07-10T14:18:45;21.60;99.90
29575;DHT22;16507;51.046;6.406;2022-07-10T14:21:11;21.80;99.90
29575;DHT22;16507;51.046;6.406;2022-07-10T14:23:40;22.30;99.90
29575;DHT22;16507;51.046;6.406;2022-07-10T14:26:14;23.20;99.90
29575;DHT22;16507;51.046;6.406;2022-07-10T14:28:40;23.00;99.90
29575;DHT22;16507;51.046;6.406;2022-07-10T14:31:06;22.40;99.90
29575;DHT22;16507;51.046;6.406;2022-07-10T14:33:33;21.90;99.90
29575;DHT22;16507;51.046;6.406;2022-07-10T14:36:00;21.30;99.90
29575;DHT22;16507;51.046;6.406;2022-07-10T14:38:26;20.90;99.90
29575;DHT22;16507;51.046;6.406;2022-07-10T14:40:52;20.70;99.90
29575;DHT22;16507;51.046;6.406;2022-07-10T14:43:21;20.50;99.90
29575;DHT22;16507;51.046;6.406;2022-07-10T14:45:48;20.40;99.90
29575;DHT22;16507;51.046;6.406;2022-07-10T14:48:14;20.50;99.90
29575;DHT22;16507;51.046;6.406;2022-07-10T14:50:40;20.50;99.90
29575;DHT22;16507;51.046;6.406;2022-07-10T14:53:06;20.70;99.90
29575;DHT22;16507;51.046;6.406;2022-07-10T14:55:33;21.00;99.90
29575;DHT22;16507;51.046;6.406;2022-07-10T14:57:59;21.20;99.90
29575;DHT22;16507;51.046;6.406;2022-07-10T15:00:25;21.00;99.90
29575;DHT22;16507;51.046;6.406;2022-07-10T15:02:50;21.10;99.90
29575;DHT22;16507;51.046;6.406;2022-07-10T15:05:16;21.00;99.90
29575;DHT22;16507;51.046;6.406;2022-07-10T15:07:41;20.90;99.90
29575;DHT22;16507;51.046;6.406;2022-07-10T15:10:07;21.20;99.90
29575;DHT22;16507;51.046;6.406;2022-07-10T15:12:37;21.40;99.90
29575;DHT22;16507;51.046;6.406;2022-07-10T15:15:06;21.70;99.90
29575;DHT22;16507;51.046;6.406;2022-07-10T15:17:35;22.00;99.90
29575;DHT22;16507;51.046;6.406;2022-07-10T15:20:01;22.30;99.90
29575;DHT22;16507;51.046;6.406;2022-07-10T15:22:27;22.00;99.90
29575;DHT22;16507;51.046;6.406;2022-07-10T15:24:53;22.00;99.90
29575;DHT22;16507;51.046;6.406;2022-07-10T15:27:18;21.60;99.90
29575;DHT22;16507;51.046;6.406;2022-07-10T15:29:44;21.10;99.90
29575;DHT22;16507;51.046;6.406;2022-07-10T15:32:10;21.10;99.90
29575;DHT22;16507;51.046;6.406;2022-07-10T15:34:36;20.90;99.90
29575;DHT22;16507;51.046;6.406;2022-07-10T15:37:02;20.40;99.90
29575;DHT22;16507;51.046;6.406;2022-07-10T15:39:27;20.40;99.90
29575;DHT22;16507;51.046;6.406;2022-07-10T15:41:53;20.40;99.90
29575;DHT22;16507;51.046;6.406;2022-07-10T15:44:19;20.40;99.90
29575;DHT22;16507;51.046;6.406;2022-07-10T15:46:44;20.50;99.90
29575;DHT22;16507;51.046;6.406;2022-07-10T15:49:10;20.70;99.90
29575;DHT22;16507;51.046;6.406;2022-07-10T15:51:37;20.60;99.90
29575;DHT22;16507;51.046;6.406;2022-07-10T15:54:03;20.50;99.90
29575;DHT22;16507;51.046;6.406;2022-07-10T15:56:29;20.50;99.90